Time;durP1;ratioP1;P1;durP2;ratioP2;P2;SDS_P1;SDS_P2;PMS_P1;PMS_P2;Temp;Humidity;BMP_temperature;BMP_pressure;BME280_temperature;BME280_humidity;BME280_pressure;Samples;Min_cycle;Max_cycle;Signal;HPM_P1;HPM_P2
2023/02/26 00:02:09;;;;;;;4.10;1.70;;;;;;;1.59;79.08;97205.20;105227;1261;74459;-27
2023/02/26 00:04:40;;;;;;;2.60;1.60;;;;;;;2.08;76.71;97223.45;105213;1257;62208;-26
2023/02/26 00:07:11;;;;;;;2.20;1.70;;;;;;;2.07;76.30;97245.14;105476;1260;61852;-26
2023/02/26 00:09:41;;;;;;;3.70;1.70;;;;;;;1.86;76.50;97238.94;105284;1257;75494;-26
2023/02/26 00:12:13;;;;;;;3.80;2.10;;;;;;;1.63;77.18;97244.04;105435;1257;75161;-26
2023/02/26 00:14:42;;;;;;;2.10;1.70;;;;;;;1.45;77.73;97247.91;105508;1257;74503;-26
2023/02/26 00:17:30;;;;;;;2.90;2.00;;;;;;;1.21;78.59;97246.39;105628;1261;61138;-26
2023/02/26 00:20:01;;;;;;;1.80;1.20;;;;;;;1.33;78.67;97252.38;105557;1262;62004;-26
2023/02/26 00:22:30;;;;;;;3.00;1.70;;;;;;;1.86;77.08;97252.09;105307;1257;74348;-26
2023/02/26 00:24:59;;;;;;;4.70;2.30;;;;;;;1.99;76.02;97257.47;105395;1257;76177;-26
2023/02/26 00:27:28;;;;;;;2.00;1.30;;;;;;;1.86;76.11;97261.69;105564;1257;74227;-26
2023/02/26 00:29:57;;;;;;;3.00;1.60;;;;;;;1.63;76.57;97265.30;105667;1256;61370;-26
2023/02/26 00:32:26;;;;;;;3.50;1.80;;;;;;;1.48;76.82;97266.22;105208;1262;62108;-26
2023/02/26 00:34:56;;;;;;;2.90;2.00;;;;;;;1.29;77.19;97276.58;105063;1265;75064;-26
2023/02/26 00:37:50;;;;;;;1.30;1.00;;;;;;;1.17;77.76;97284.62;105326;1263;75826;-25
2023/02/26 00:40:37;;;;;;;2.30;1.30;;;;;;;1.75;77.50;97293.95;105592;1257;74152;-26
2023/02/26 00:43:08;;;;;;;2.30;1.50;;;;;;;2.30;75.80;97296.63;105400;1263;61221;-26
2023/02/26 00:45:37;;;;;;;2.90;1.70;;;;;;;2.28;75.09;97301.03;105181;1266;62133;-26
2023/02/26 00:48:11;;;;;;;1.60;1.30;;;;;;;2.01;75.44;97296.39;105553;1257;75660;-26
2023/02/26 00:50:45;;;;;;;3.90;1.60;;;;;;;1.77;75.96;97295.40;105216;1257;76220;-26
2023/02/26 00:53:35;;;;;;;1.50;1.40;;;;;;;1.58;76.50;97292.16;105357;1257;74329;-26
2023/02/26 00:56:03;;;;;;;1.70;1.30;;;;;;;1.26;77.67;97293.23;105519;1257;61150;-26
2023/02/26 00:58:32;;;;;;;1.70;1.30;;;;;;;1.49;78.16;97300.14;105483;1263;61862;-26
2023/02/26 01:01:02;;;;;;;2.80;1.60;;;;;;;2.12;76.67;97316.59;105410;1257;75647;-26
2023/02/26 01:03:31;;;;;;;2.50;1.80;;;;;;;2.25;75.81;97317.05;105282;1257;75874;-26
2023/02/26 01:06:00;;;;;;;3.20;2.10;;;;;;;2.12;75.70;97319.38;105186;1262;72924;-26
2023/02/26 01:08:35;;;;;;;1.50;1.00;;;;;;;1.89;76.16;97321.77;105157;1257;61167;-26
2023/02/26 01:11:04;;;;;;;3.00;2.10;;;;;;;1.55;77.40;97320.26;105079;1266;62242;-25
2023/02/26 01:13:33;;;;;;;2.40;1.50;;;;;;;1.42;77.86;97323.58;105215;1257;74471;-25
2023/02/26 01:16:08;;;;;;;1.90;1.30;;;;;;;1.34;78.19;97339.15;105102;1262;76114;-26
2023/02/26 01:18:43;;;;;;;1.70;1.60;;;;;;;1.85;77.62;97344.95;105561;1258;73870;-26
2023/02/26 01:21:18;;;;;;;3.60;1.80;;;;;;;2.15;76.21;97346.70;105480;1263;61132;-26
2023/02/26 01:23:49;;;;;;;3.40;2.20;;;;;;;2.04;76.13;97341.51;105228;1263;61833;-26
2023/02/26 01:26:19;;;;;;;2.90;1.60;;;;;;;1.90;76.27;97346.48;105387;1257;74684;-26
2023/02/26 01:28:48;;;;;;;2.30;1.60;;;;;;;1.66;76.82;97353.81;105476;1257;76340;-26
2023/02/26 01:31:46;;;;;;;2.00;1.40;;;;;;;1.42;77.67;97339.80;105264;1257;74448;-26
2023/02/26 01:34:40;;;;;;;3.10;1.60;;;;;;;1.36;78.56;97347.71;105161;1258;62757;-26
2023/02/26 01:37:25;;;;;;;2.30;1.80;;;;;;;2.02;77.18;97353.96;105143;1263;61690;-26
2023/02/26 01:40:22;;;;;;;3.40;2.10;;;;;;;2.17;75.71;97346.35;105082;1257;75391;-26
2023/02/26 01:42:53;;;;;;;3.00;2.00;;;;;;;2.00;76.01;97339.22;105525;1257;76018;-26
2023/02/26 01:45:33;;;;;;;2.70;2.00;;;;;;;1.71;76.62;97334.46;105233;1260;74605;-26
2023/02/26 01:48:17;;;;;;;2.60;1.60;;;;;;;1.49;77.45;97342.23;105100;1257;61866;-26
2023/02/26 01:50:46;;;;;;;3.10;1.80;;;;;;;1.29;78.04;97358.01;105335;1262;62169;-26
2023/02/26 01:53:15;;;;;;;2.90;2.10;;;;;;;1.45;78.08;97358.75;105391;1261;75653;-26
2023/02/26 01:55:45;;;;;;;2.50;1.50;;;;;;;1.92;76.54;97363.12;105113;1257;75904;-26
2023/02/26 01:58:13;;;;;;;2.60;1.90;;;;;;;1.96;75.85;97373.61;105115;1257;74470;-26
2023/02/26 02:00:42;;;;;;;2.30;1.60;;;;;;;1.80;76.23;97366.90;105118;1257;61119;-26
2023/02/26 02:03:12;;;;;;;3.60;2.20;;;;;;;1.64;76.41;97354.87;105302;1263;61822;-26
2023/02/26 02:05:55;;;;;;;4.30;2.30;;;;;;;1.41;77.02;97353.20;105159;1262;74383;-26
2023/02/26 02:08:23;;;;;;;4.00;2.20;;;;;;;1.18;77.64;97353.98;105131;1263;75804;-26
2023/02/26 02:10:52;;;;;;;3.00;1.30;;;;;;;1.06;78.44;97361.63;105374;1257;74143;-25
2023/02/26 02:13:26;;;;;;;3.40;2.00;;;;;;;1.61;77.29;97365.82;105263;1262;61186;-27
2023/02/26 02:15:57;;;;;;;5.30;2.40;;;;;;;1.94;75.74;97374.98;105440;1262;61946;-26
2023/02/26 02:18:52;;;;;;;4.60;2.40;;;;;;;1.78;75.44;97366.34;105115;1262;74699;-26
2023/02/26 02:21:44;;;;;;;3.60;2.50;;;;;;;1.46;76.14;97356.80;105375;1257;74578;-26
2023/02/26 02:24:54;;;;;;;3.20;2.30;;;;;;;1.10;77.46;97360.67;105366;1257;74010;-26
2023/02/26 02:28:13;;;;;;;4.60;2.60;;;;;;;0.79;78.40;97360.75;105094;1257;60991;-26
2023/02/26 02:31:05;;;;;;;2.70;1.70;;;;;;;0.55;79.73;97366.64;105106;1262;61840;-26
2023/02/26 02:34:01;;;;;;;3.40;1.90;;;;;;;1.15;78.27;97370.44;105188;1256;75391;-26
2023/02/26 02:36:44;;;;;;;3.60;2.10;;;;;;;1.46;76.71;97362.23;105118;1263;74575;-26
2023/02/26 02:39:52;;;;;;;3.20;2.00;;;;;;;1.39;76.25;97363.81;105067;1265;73198;-26
2023/02/26 02:42:31;;;;;;;3.70;2.40;;;;;;;1.07;76.80;97373.00;104821;1263;61235;-26
2023/02/26 02:45:06;;;;;;;3.00;2.10;;;;;;;0.78;77.51;97376.15;104886;1263;61172;-26
2023/02/26 02:47:37;;;;;;;4.10;2.30;;;;;;;0.52;77.92;97393.44;104841;1269;75628;-25
2023/02/26 02:50:39;;;;;;;3.70;2.50;;;;;;;0.29;78.48;97398.38;104741;1263;75804;-26
2023/02/26 02:53:18;;;;;;;3.30;2.00;;;;;;;0.16;79.46;97390.82;104583;1266;73215;-26
2023/02/26 02:55:58;;;;;;;4.80;2.10;;;;;;;0.85;78.66;97401.46;104980;1263;61432;-25
2023/02/26 02:58:30;;;;;;;2.90;2.40;;;;;;;1.25;76.56;97412.45;104854;1263;62905;-26
2023/02/26 03:01:03;;;;;;;5.70;2.60;;;;;;;1.20;76.18;97412.99;104764;1268;75040;-26
2023/02/26 03:03:36;;;;;;;3.30;2.10;;;;;;;0.97;76.32;97406.36;104798;1263;76159;-26
2023/02/26 03:06:05;;;;;;;2.80;2.00;;;;;;;0.69;76.98;97399.12;104739;1265;74450;-26
2023/02/26 03:08:38;;;;;;;4.80;2.80;;;;;;;0.45;77.53;97400.58;104731;1263;61216;-26
2023/02/26 03:11:09;;;;;;;4.80;2.50;;;;;;;0.20;78.22;97406.44;105019;1264;61950;-26
2023/02/26 03:13:39;;;;;;;3.60;2.50;;;;;;;0.02;78.79;97400.14;105142;1263;75636;-25
2023/02/26 03:16:41;;;;;;;1.80;1.40;;;;;;;-0.12;79.38;97397.61;105020;1256;76266;-26
2023/02/26 03:19:27;;;;;;;3.20;2.00;;;;;;;0.53;78.96;97423.45;105410;1258;74179;-26
2023/02/26 03:22:13;;;;;;;3.30;1.70;;;;;;;1.10;77.17;97435.73;105179;1257;61167;-26
2023/02/26 03:25:16;;;;;;;3.90;2.10;;;;;;;1.02;76.32;97433.54;105375;1262;62176;-26
2023/02/26 03:27:49;;;;;;;3.80;2.40;;;;;;;0.73;76.69;97433.59;105547;1257;74626;-25
2023/02/26 03:30:21;;;;;;;3.80;2.20;;;;;;;0.45;77.36;97442.23;105505;1262;76249;-26
2023/02/26 03:33:01;;;;;;;;;;;;;;;0.22;77.71;97455.84;105295;1265;73888;-26
2023/02/26 03:35:37;;;;;;;3.90;2.30;;;;;;;0.00;77.99;97469.16;105262;1266;61096;-26
2023/02/26 03:38:08;;;;;;;2.60;1.50;;;;;;;-0.18;78.52;97473.73;105275;1263;62186;-25
2023/02/26 03:40:43;;;;;;;3.00;1.80;;;;;;;0.29;78.80;97481.31;105223;1264;75318;-25
2023/02/26 03:43:19;;;;;;;5.00;2.20;;;;;;;0.81;77.50;97482.90;105331;1257;75837;-26
2023/02/26 03:45:50;;;;;;;3.00;2.40;;;;;;;0.83;77.11;97490.02;105110;1257;74473;-26
2023/02/26 03:48:22;;;;;;;3.10;2.00;;;;;;;0.63;77.36;97500.14;105093;1263;61211;-26
2023/02/26 03:50:53;;;;;;;5.10;2.60;;;;;;;0.40;77.66;97501.81;105138;1265;62027;-25
2023/02/26 03:53:44;;;;;;;2.90;2.10;;;;;;;0.13;78.21;97504.52;105157;1257;75317;-26
2023/02/26 03:56:28;;;;;;;4.20;2.30;;;;;;;-0.13;79.07;97502.23;105229;1261;74123;-26
2023/02/26 03:59:07;;;;;;;3.00;1.90;;;;;;;-0.31;80.62;97489.34;105266;1263;73151;-26
2023/02/26 04:02:17;;;;;;;3.70;1.90;;;;;;;0.36;79.72;97478.50;105309;1257;61191;-26
2023/02/26 04:04:51;;;;;;;2.50;2.00;;;;;;;0.85;77.73;97479.08;105587;1257;61158;-26
2023/02/26 04:07:21;;;;;;;4.50;2.50;;;;;;;0.72;77.14;97479.23;105382;1265;75288;-26
2023/02/26 04:09:51;;;;;;;3.40;2.10;;;;;;;0.47;77.48;97475.20;105512;1263;75010;-26
2023/02/26 04:12:21;;;;;;;3.10;2.00;;;;;;;0.21;77.97;97480.84;105390;1257;74381;-26
2023/02/26 04:14:50;;;;;;;2.70;2.00;;;;;;;-0.02;78.59;97492.89;105081;1266;61215;-26
2023/02/26 04:17:18;;;;;;;3.60;2.30;;;;;;;-0.26;79.55;97504.23;105264;1262;61221;-25
2023/02/26 04:19:47;;;;;;;3.20;2.20;;;;;;;-0.19;80.71;97506.54;105544;1257;75648;-26
2023/02/26 04:22:15;;;;;;;3.50;2.10;;;;;;;0.47;79.41;97511.13;105449;1262;76111;-26
2023/02/26 04:24:49;;;;;;;3.30;2.40;;;;;;;0.66;77.98;97510.89;105100;1257;74284;-26
2023/02/26 04:27:18;;;;;;;3.50;2.40;;;;;;;0.51;77.90;97522.77;105179;1262;61055;-26
2023/02/26 04:29:46;;;;;;;4.00;2.40;;;;;;;0.29;78.41;97531.39;105382;1256;62048;-26
2023/02/26 04:32:15;;;;;;;3.20;2.40;;;;;;;0.09;79.01;97540.81;105187;1263;75742;-25
2023/02/26 04:34:43;;;;;;;2.20;1.40;;;;;;;-0.16;80.28;97542.33;105207;1262;75908;-26
2023/02/26 04:37:12;;;;;;;4.20;2.50;;;;;;;0.17;80.22;97546.80;105151;1263;74216;-26
2023/02/26 04:39:43;;;;;;;4.10;2.70;;;;;;;0.80;78.46;97553.02;105322;1257;61871;-26
2023/02/26 04:42:11;;;;;;;3.00;2.20;;;;;;;0.81;77.62;97554.16;105238;1262;61977;-26
2023/02/26 04:44:41;;;;;;;3.40;2.40;;;;;;;0.64;77.99;97556.83;105163;1257;75437;-26
2023/02/26 04:47:10;;;;;;;3.90;2.70;;;;;;;0.35;78.85;97563.75;105169;1263;76166;-26
2023/02/26 04:49:38;;;;;;;3.10;2.70;;;;;;;0.18;79.37;97569.77;105176;1261;74504;-26
2023/02/26 04:52:08;;;;;;;2.80;2.10;;;;;;;0.04;79.33;97566.72;105162;1262;61844;-26
2023/02/26 04:54:39;;;;;;;3.00;2.00;;;;;;;-0.07;79.81;97560.89;105210;1263;62020;-26
2023/02/26 04:57:09;;;;;;;4.40;2.80;;;;;;;0.53;79.53;97558.55;105404;1261;75321;-25
2023/02/26 04:59:37;;;;;;;5.40;2.40;;;;;;;0.96;77.77;97558.65;105599;1257;75902;-26
2023/02/26 05:02:06;;;;;;;4.30;2.50;;;;;;;0.96;77.05;97562.12;105514;1261;73922;-26
2023/02/26 05:04:39;;;;;;;2.80;1.60;;;;;;;0.78;77.41;97568.00;105219;1262;61397;-26
2023/02/26 05:07:08;;;;;;;4.00;2.60;;;;;;;0.56;78.12;97568.56;105462;1263;62115;-26
2023/02/26 05:09:36;;;;;;;3.90;2.50;;;;;;;0.37;78.46;97573.05;105228;1257;75368;-25
2023/02/26 05:12:05;;;;;;;5.60;2.20;;;;;;;0.19;79.24;97584.92;105292;1262;75181;-25
2023/02/26 05:14:34;;;;;;;3.50;2.30;;;;;;;0.53;79.54;97598.48;105337;1263;74512;-26
2023/02/26 05:17:03;;;;;;;3.90;2.10;;;;;;;0.99;77.88;97600.67;105344;1257;61067;-26
2023/02/26 05:19:31;;;;;;;4.60;2.70;;;;;;;1.04;77.09;97602.76;105196;1262;61850;-26
2023/02/26 05:22:04;;;;;;;6.20;2.80;;;;;;;0.92;77.53;97602.02;105262;1263;74372;-26
2023/02/26 05:24:33;;;;;;;3.90;2.70;;;;;;;0.69;78.25;97601.43;105347;1263;75831;-26
2023/02/26 05:27:02;;;;;;;3.60;2.40;;;;;;;0.53;78.76;97596.10;105477;1257;73950;-26
2023/02/26 05:29:31;;;;;;;5.40;2.50;;;;;;;0.38;79.49;97590.23;105547;1257;61107;-25
2023/02/26 05:32:01;;;;;;;3.30;2.30;;;;;;;0.41;80.26;97596.49;105386;1270;61560;-26
2023/02/26 05:34:31;;;;;;;3.80;2.60;;;;;;;1.03;79.07;97599.92;105143;1265;75454;-26
2023/02/26 05:37:00;;;;;;;3.80;2.50;;;;;;;1.33;77.66;97603.42;105227;1257;76171;-26
2023/02/26 05:39:32;;;;;;;5.10;3.20;;;;;;;1.31;77.19;97603.86;105205;1263;73147;-26
2023/02/26 05:42:00;;;;;;;6.20;2.90;;;;;;;1.13;77.44;97611.02;105217;1257;61141;-26
2023/02/26 05:44:29;;;;;;;4.60;2.90;;;;;;;0.93;77.98;97620.02;105293;1262;62134;-26
2023/02/26 05:46:58;;;;;;;4.00;2.80;;;;;;;0.82;78.40;97625.39;105289;1261;75652;-26
2023/02/26 05:49:29;;;;;;;3.50;2.40;;;;;;;0.71;78.82;97634.79;105167;1257;76106;-26
2023/02/26 05:51:58;;;;;;;4.20;2.30;;;;;;;1.24;78.37;97634.44;105243;1257;74047;-26
2023/02/26 05:54:27;;;;;;;3.90;2.40;;;;;;;1.74;77.05;97641.41;105189;1261;61882;-27
2023/02/26 05:56:56;;;;;;;4.20;2.80;;;;;;;1.76;76.11;97644.39;105222;1261;61808;-27
2023/02/26 05:59:24;;;;;;;4.40;2.70;;;;;;;1.59;76.26;97656.41;103836;1257;1912858;-26
2023/02/26 06:01:53;;;;;;;5.30;3.30;;;;;;;1.38;76.81;97670.79;105413;1263;76221;-26
2023/02/26 06:04:21;;;;;;;3.20;2.70;;;;;;;1.22;77.21;97676.98;105406;1263;74380;-26
2023/02/26 06:06:50;;;;;;;4.10;2.90;;;;;;;1.01;77.70;97667.86;105510;1257;61322;-26
2023/02/26 06:09:18;;;;;;;4.10;2.20;;;;;;;1.19;78.24;97671.02;105605;1262;61846;-26
2023/02/26 06:11:49;;;;;;;4.20;2.70;;;;;;;1.81;76.93;97680.80;105610;1262;75486;-26
2023/02/26 06:14:18;;;;;;;3.00;2.10;;;;;;;1.93;75.88;97687.88;105633;1262;75931;-26
2023/02/26 06:16:46;;;;;;;5.20;2.90;;;;;;;1.82;75.76;97693.27;105576;1263;73890;-26
2023/02/26 06:19:16;;;;;;;4.10;2.80;;;;;;;1.67;75.95;97699.56;105423;1258;61089;-27
2023/02/26 06:21:44;;;;;;;4.70;2.60;;;;;;;1.44;76.44;97697.75;105359;1262;62184;-26
2023/02/26 06:24:13;;;;;;;5.60;3.30;;;;;;;1.24;77.09;97702.02;105306;1263;75520;-26
2023/02/26 06:26:41;;;;;;;5.70;2.60;;;;;;;1.07;77.82;97709.38;105203;1257;75272;-26
2023/02/26 06:29:10;;;;;;;4.00;2.50;;;;;;;1.52;77.65;97704.29;105369;1263;74489;-26
2023/02/26 06:31:44;;;;;;;3.10;2.10;;;;;;;2.01;76.40;97708.90;105122;1257;61611;-27
2023/02/26 06:34:13;;;;;;;4.30;3.00;;;;;;;1.88;75.68;97707.52;105456;1263;61142;-26
2023/02/26 06:36:42;;;;;;;4.40;2.90;;;;;;;1.77;76.13;97712.89;105605;1267;75429;-26
2023/02/26 06:39:11;;;;;;;3.70;2.20;;;;;;;1.63;76.41;97720.85;105512;1261;75813;-26
2023/02/26 06:41:40;;;;;;;4.20;2.80;;;;;;;1.38;77.07;97720.23;105284;1261;73591;-26
2023/02/26 06:44:10;;;;;;;5.10;3.60;;;;;;;1.13;78.08;97723.36;105188;1263;61407;-26
2023/02/26 06:46:38;;;;;;;4.70;2.80;;;;;;;1.00;78.77;97720.95;105132;1264;62011;-26
2023/02/26 06:49:06;;;;;;;5.70;2.70;;;;;;;1.48;78.06;97718.20;105192;1262;75250;-26
2023/02/26 06:51:35;;;;;;;6.40;3.20;;;;;;;1.79;76.88;97726.25;105394;1263;76071;-26
2023/02/26 06:54:10;;;;;;;4.90;2.90;;;;;;;1.86;76.30;97737.98;105162;1263;74415;-26
2023/02/26 06:56:39;;;;;;;5.10;3.40;;;;;;;1.74;76.37;97738.93;105285;1258;61653;-26
2023/02/26 06:59:07;;;;;;;5.60;3.60;;;;;;;1.58;76.69;97747.84;105246;1262;61806;-26
2023/02/26 07:01:36;;;;;;;5.90;3.50;;;;;;;1.42;77.18;97757.94;105225;1263;75469;-26
2023/02/26 07:04:04;;;;;;;3.30;2.10;;;;;;;1.31;77.81;97759.15;105186;1262;76232;-26
2023/02/26 07:06:37;;;;;;;3.50;2.40;;;;;;;1.78;77.42;97758.67;105422;1261;74294;-26
2023/02/26 07:09:06;;;;;;;5.00;3.30;;;;;;;2.28;75.97;97764.82;105238;1257;62586;-26
2023/02/26 07:11:35;;;;;;;7.10;3.40;;;;;;;2.30;75.04;97767.21;105154;1262;61413;-27
2023/02/26 07:14:03;;;;;;;4.00;2.90;;;;;;;2.14;75.31;97770.70;105481;1267;75354;-26
2023/02/26 07:16:31;;;;;;;5.10;3.30;;;;;;;1.92;75.76;97779.70;105630;1262;76007;-26
2023/02/26 07:19:01;;;;;;;5.30;3.40;;;;;;;1.75;76.55;97782.20;105630;1262;74245;-26
2023/02/26 07:21:30;;;;;;;7.10;4.00;;;;;;;1.57;76.92;97784.17;105381;1257;61499;-26
2023/02/26 07:24:00;;;;;;;4.40;2.80;;;;;;;1.57;77.63;97791.73;105219;1271;62206;-26
2023/02/26 07:26:28;;;;;;;4.80;2.50;;;;;;;2.20;76.33;97793.39;105132;1263;75456;-26
2023/02/26 07:28:57;;;;;;;6.10;2.80;;;;;;;2.59;75.08;97789.41;105214;1263;75858;-26
2023/02/26 07:31:26;;;;;;;5.00;2.60;;;;;;;2.64;74.39;97795.94;105364;1257;73913;-26
2023/02/26 07:36:12;;;;;;;4.90;3.00;;;;;;;2.36;74.57;97797.16;102643;1292;600373;-26
2023/02/26 07:38:41;;;;;;;4.90;3.20;;;;;;;2.20;74.80;97805.73;104839;1270;61068;-27
2023/02/26 07:41:12;;;;;;;4.80;3.30;;;;;;;2.09;75.23;97814.72;104835;1272;62091;-27
2023/02/26 07:43:41;;;;;;;4.20;2.80;;;;;;;1.98;75.56;97815.10;104892;1271;73753;-27
2023/02/26 07:46:10;;;;;;;7.20;3.80;;;;;;;1.88;76.06;97810.27;105640;1256;76239;-27
2023/02/26 07:48:40;;;;;;;4.60;3.40;;;;;;;2.33;75.96;97800.43;105330;1257;1944996;-26
2023/02/26 07:51:09;;;;;;;4.40;3.10;;;;;;;3.02;74.09;97799.35;105862;1254;61565;-26
2023/02/26 07:53:38;;;;;;;4.70;3.10;;;;;;;3.19;72.75;97799.87;105889;1254;61096;-26
2023/02/26 07:56:11;;;;;;;6.10;3.00;;;;;;;3.06;72.67;97799.59;105849;1254;72857;-26
2023/02/26 07:58:40;;;;;;;5.10;3.50;;;;;;;2.89;72.94;97804.17;105899;1254;76053;-26
2023/02/26 08:01:09;;;;;;;5.60;3.80;;;;;;;2.75;73.64;97813.54;105871;1254;74977;-26
2023/02/26 08:03:38;;;;;;;5.70;3.60;;;;;;;2.63;73.61;97813.52;105692;1254;61190;-27
2023/02/26 08:06:08;;;;;;;5.40;3.40;;;;;;;2.53;74.26;97816.55;105859;1254;61802;-27
2023/02/26 08:08:38;;;;;;;5.30;3.10;;;;;;;2.43;74.24;97826.87;105907;1254;74792;-27
2023/02/26 08:11:07;;;;;;;5.50;4.00;;;;;;;2.32;74.83;97833.73;105899;1256;75503;-26
2023/02/26 08:13:35;;;;;;;4.80;3.30;;;;;;;2.29;75.42;97829.84;105918;1254;74328;-26
2023/02/26 08:16:04;;;;;;;5.90;3.90;;;;;;;2.81;74.83;97841.91;105876;1254;61440;-27
2023/02/26 08:18:33;;;;;;;6.20;3.70;;;;;;;3.36;73.38;97854.11;105667;1254;62203;-26
2023/02/26 08:21:01;;;;;;;6.40;3.90;;;;;;;3.50;72.70;97853.79;105745;1254;73283;-26
2023/02/26 08:23:31;;;;;;;6.20;4.10;;;;;;;3.42;72.02;97851.27;105613;1256;75333;-26
2023/02/26 08:26:01;;;;;;;6.70;4.10;;;;;;;3.16;72.23;97848.40;105530;1254;74394;-26
2023/02/26 08:28:29;;;;;;;4.80;3.40;;;;;;;3.00;73.21;97856.08;105494;1254;60988;-26
2023/02/26 08:31:04;;;;;;;4.20;2.90;;;;;;;2.87;73.54;97860.05;105775;1253;62122;-26
2023/02/26 08:33:34;;;;;;;5.40;3.60;;;;;;;2.83;73.86;97855.32;105690;1254;73953;-26
2023/02/26 08:36:03;;;;;;;6.90;4.50;;;;;;;2.82;74.39;97855.89;105720;1259;75937;-26
2023/02/26 08:38:31;;;;;;;4.60;3.30;;;;;;;2.89;74.51;97849.25;105869;1256;74355;-26
2023/02/26 08:41:00;;;;;;;5.50;3.00;;;;;;;3.61;74.23;97855.41;105676;1254;60998;-26
2023/02/26 08:43:29;;;;;;;4.70;3.00;;;;;;;4.32;71.16;97852.67;105846;1256;61801;-26
2023/02/26 08:45:59;;;;;;;5.00;3.70;;;;;;;4.59;69.93;97850.31;105647;1254;74561;-26
2023/02/26 08:48:27;;;;;;;5.60;3.90;;;;;;;4.55;69.53;97856.96;105715;1260;75808;-23
2023/02/26 08:50:56;;;;;;;5.40;3.00;;;;;;;4.22;69.29;97861.27;105863;1254;73131;-25
2023/02/26 08:53:25;;;;;;;5.60;3.60;;;;;;;4.05;70.44;97868.89;105778;1254;61850;-25
2023/02/26 08:55:53;;;;;;;5.10;3.50;;;;;;;3.91;70.72;97862.83;105848;1257;61834;-25
2023/02/26 08:58:22;;;;;;;5.10;3.50;;;;;;;3.87;70.99;97861.94;105700;1254;74563;-25
2023/02/26 09:00:50;;;;;;;6.50;3.90;;;;;;;3.83;71.04;97863.61;105847;1254;76198;-25
2023/02/26 09:03:18;;;;;;;6.60;4.00;;;;;;;3.95;71.11;97862.41;105798;1254;74193;-25
2023/02/26 09:05:47;;;;;;;6.50;3.80;;;;;;;4.03;70.58;97872.09;105720;1253;61447;-26
2023/02/26 09:08:16;;;;;;;4.70;3.60;;;;;;;4.14;70.41;97868.55;105588;1254;61968;-25
2023/02/26 09:10:46;;;;;;;3.90;2.70;;;;;;;4.04;69.31;97874.29;105779;1254;75648;-25
2023/02/26 09:13:15;;;;;;;4.70;3.60;;;;;;;3.91;70.37;97880.52;105700;1254;76189;-25
2023/02/26 09:15:43;;;;;;;4.90;3.40;;;;;;;3.96;71.02;97890.30;105747;1254;74114;-26
2023/02/26 09:18:14;;;;;;;5.10;3.70;;;;;;;4.07;71.35;97893.50;105657;1254;61423;-25
2023/02/26 09:20:43;;;;;;;6.80;3.70;;;;;;;4.09;69.97;97891.94;105598;1254;62299;-26
2023/02/26 09:23:12;;;;;;;3.90;2.60;;;;;;;4.05;70.12;97897.73;105545;1254;74566;-26
2023/02/26 09:25:40;;;;;;;5.50;4.00;;;;;;;3.96;70.71;97903.39;105828;1254;76016;-26
2023/02/26 09:28:08;;;;;;;5.30;3.10;;;;;;;4.05;70.63;97911.11;105763;1254;74135;-25
2023/02/26 09:30:38;;;;;;;5.10;3.00;;;;;;;4.04;70.36;97915.19;105755;1254;61455;-25
2023/02/26 09:33:08;;;;;;;4.50;2.50;;;;;;;3.91;71.70;97925.86;105789;1255;61077;-25
2023/02/26 09:35:37;;;;;;;3.00;2.30;;;;;;;4.27;69.71;97930.00;105666;1253;75378;-25
2023/02/26 09:38:07;;;;;;;3.50;2.50;;;;;;;4.85;68.35;97930.36;105699;1254;74938;-24
2023/02/26 09:40:53;;;;;;;4.80;3.50;;;;;;;4.93;66.22;97933.54;105669;1254;74078;-25
2023/02/26 09:43:31;;;;;;;5.60;3.60;;;;;;;4.93;67.49;97939.93;105379;1253;62060;-26
2023/02/26 09:46:09;;;;;;;5.10;2.80;;;;;;;4.77;67.31;97940.23;105588;1259;62365;-25
2023/02/26 09:48:37;;;;;;;4.90;3.70;;;;;;;4.57;67.55;97948.77;105302;1261;73873;-25
2023/02/26 09:51:12;;;;;;;5.50;3.50;;;;;;;4.44;68.42;97946.97;105657;1253;76160;-25
2023/02/26 09:53:43;;;;;;;4.70;3.40;;;;;;;4.36;69.61;97951.53;105470;1254;74144;-25
2023/02/26 09:56:16;;;;;;;5.20;3.30;;;;;;;4.26;69.33;97953.41;105552;1253;61127;-25
2023/02/26 09:58:44;;;;;;;6.30;3.70;;;;;;;4.15;70.13;97950.79;105691;1253;61172;-25
2023/02/26 10:08:57;;;;;;;5.60;3.30;;;;;;;4.19;70.20;97948.05;103030;1285;600242;-23
2023/02/26 10:11:35;;;;;;;4.90;2.80;;;;;;;4.19;70.59;97948.09;105128;1264;61123;-25
2023/02/26 10:14:07;;;;;;;4.50;2.30;;;;;;;4.23;70.09;97950.55;104878;1270;62137;-24
2023/02/26 10:16:40;;;;;;;2.80;1.80;;;;;;;4.80;68.23;97955.98;104764;1271;74142;-24
2023/02/26 10:19:15;;;;;;;3.50;2.60;;;;;;;5.15;66.39;97958.17;104765;1264;76761;-24
2023/02/26 10:21:58;;;;;;;3.20;2.20;;;;;;;5.24;66.50;97960.80;103479;1267;1867975;-26
2023/02/26 10:25:14;;;;;;;3.70;2.60;;;;;;;4.92;66.30;97969.23;104860;1262;62174;-24
2023/02/26 10:28:41;;;;;;;3.30;2.30;;;;;;;4.79;66.67;97964.48;104811;1264;61109;-24
2023/02/26 10:31:37;;;;;;;4.20;3.10;;;;;;;4.44;67.57;97969.64;104699;1282;74019;-25
2023/02/26 10:34:29;;;;;;;3.60;2.60;;;;;;;4.46;69.54;97970.17;104653;1274;76661;-24
2023/02/26 10:37:32;;;;;;;3.20;2.50;;;;;;;4.64;68.59;97975.62;104884;1267;73592;-24
2023/02/26 10:40:25;;;;;;;5.00;3.10;;;;;;;4.89;67.69;97980.11;104872;1264;61137;-24
2023/02/26 10:43:04;;;;;;;6.60;3.70;;;;;;;4.85;68.02;97988.64;104889;1270;62155;-24
2023/02/26 10:46:17;;;;;;;6.30;4.50;;;;;;;4.71;69.77;98000.02;105591;1258;74826;-24
2023/02/26 10:49:35;;;;;;;4.20;2.90;;;;;;;4.46;67.68;97998.91;105513;1267;75327;-24
2023/02/26 10:52:18;;;;;;;5.30;3.80;;;;;;;4.35;69.71;97996.75;105285;1260;74469;-24
2023/02/26 10:54:58;;;;;;;4.60;3.00;;;;;;;3.98;69.66;97994.75;105562;1258;61111;-24
2023/02/26 10:57:34;;;;;;;4.40;2.40;;;;;;;4.02;69.85;97991.74;105316;1257;61986;-24
2023/02/26 11:00:05;;;;;;;4.80;2.90;;;;;;;4.13;69.26;97989.04;105126;1257;74710;-24
2023/02/26 11:02:47;;;;;;;4.80;2.90;;;;;;;4.06;70.30;97991.77;105126;1263;76408;-25
2023/02/26 11:05:24;;;;;;;4.70;3.20;;;;;;;4.17;70.34;97993.77;105578;1258;73882;-24
2023/02/26 11:07:55;;;;;;;3.90;2.70;;;;;;;4.66;68.92;97999.88;105213;1256;61173;-25
2023/02/26 11:10:52;;;;;;;3.10;2.10;;;;;;;5.07;65.99;98007.63;105141;1263;62110;-24
2023/02/26 11:13:22;;;;;;;3.70;2.70;;;;;;;5.25;65.26;97999.95;105113;1257;73909;-24
2023/02/26 11:15:53;;;;;;;3.90;2.50;;;;;;;4.85;66.06;98005.17;105253;1263;76037;-25
2023/02/26 11:18:29;;;;;;;5.70;3.40;;;;;;;4.65;66.81;98008.17;105095;1257;74635;-25
2023/02/26 11:20:58;;;;;;;4.30;2.40;;;;;;;4.74;66.86;98008.58;105043;1266;61196;-25
2023/02/26 11:23:30;;;;;;;3.60;2.80;;;;;;;4.61;67.43;98013.13;105126;1258;62134;-25
2023/02/26 11:26:07;;;;;;;5.20;3.00;;;;;;;4.66;67.64;98009.66;105423;1258;74335;-25
2023/02/26 11:28:44;;;;;;;4.70;3.00;;;;;;;4.67;67.37;98013.05;105254;1257;75489;-24
2023/02/26 11:31:15;;;;;;;3.60;2.60;;;;;;;4.69;65.88;98009.44;105246;1257;74238;-24
2023/02/26 11:33:47;;;;;;;4.50;2.90;;;;;;;4.48;67.97;98020.77;105154;1263;61164;-24
2023/02/26 11:36:18;;;;;;;5.10;2.50;;;;;;;4.47;68.16;98018.23;105175;1257;62128;-25
2023/02/26 11:39:01;;;;;;;3.70;2.90;;;;;;;4.50;68.10;98016.80;105153;1257;73569;-24
2023/02/26 11:41:29;;;;;;;5.00;3.00;;;;;;;4.23;69.28;98021.64;105096;1257;75666;-24
2023/02/26 11:44:12;;;;;;;4.10;2.80;;;;;;;4.13;69.69;98028.94;105124;1260;74152;-25
2023/02/26 11:47:03;;;;;;;4.50;2.70;;;;;;;3.90;68.00;98036.52;105123;1262;61194;-25
2023/02/26 11:49:32;;;;;;;2.80;2.20;;;;;;;4.05;68.15;98043.04;105129;1256;62122;-25
2023/02/26 11:52:14;;;;;;;3.80;2.30;;;;;;;4.14;66.16;98039.34;105069;1258;74652;-25
2023/02/26 11:54:43;;;;;;;2.90;2.40;;;;;;;4.31;65.71;98046.21;105266;1257;75234;-25
2023/02/26 11:57:22;;;;;;;3.10;2.30;;;;;;;4.21;64.83;98052.73;105144;1257;74199;-25
2023/02/26 11:59:51;;;;;;;;;;;;;;;4.01;64.16;98057.74;105157;1258;61135;-25
2023/02/26 12:02:22;;;;;;;3.40;2.20;;;;;;;3.91;64.37;98064.48;105268;1260;61646;-25
2023/02/26 12:04:52;;;;;;;2.90;2.00;;;;;;;3.85;64.34;98065.18;105149;1258;73870;-25
2023/02/26 12:07:26;;;;;;;2.70;2.40;;;;;;;3.99;64.89;98070.94;105057;1263;76082;-25
2023/02/26 12:09:54;;;;;;;3.10;2.30;;;;;;;4.03;64.16;98066.23;105206;1256;73787;-25
2023/02/26 12:12:36;;;;;;;6.00;2.90;;;;;;;3.92;65.45;98065.08;105174;1257;61246;-25
2023/02/26 12:15:22;;;;;;;3.90;2.60;;;;;;;3.94;65.24;98066.80;105254;1257;61048;-26
2023/02/26 12:17:58;;;;;;;4.20;2.90;;;;;;;4.16;64.58;98071.85;105532;1256;74777;-26